Time;durP1;ratioP1;P1;durP2;ratioP2;P2;SDS_P1;SDS_P2;PMS_P1;PMS_P2;Temp;Humidity;BMP_temperature;BMP_pressure;BME280_temperature;BME280_humidity;BME280_pressure;Samples;Min_cycle;Max_cycle;Signal;HPM_P1;HPM_P2
2023/12/25 00:02:42;;;;;;;2.60;0.90;;;;;;;9.84;100.00;98311.54;217105;1296;139614;-93
2023/12/25 00:07:44;;;;;;;2.20;1.00;;;;;;;9.80;100.00;98317.58;217661;1296;96860;-91
2023/12/25 00:12:50;;;;;;;4.70;2.60;;;;;;;9.73;100.00;98324.79;216834;1298;139054;-94
2023/12/25 00:17:50;;;;;;;3.30;0.60;;;;;;;9.63;100.00;98328.51;217579;1295;139273;-92
2023/12/25 00:23:06;;;;;;;3.70;0.80;;;;;;;9.57;100.00;98324.95;217134;1296;138944;-96
2023/12/25 00:28:09;;;;;;;2.60;0.80;;;;;;;9.52;100.00;98330.84;217828;1296;139319;-94
2023/12/25 01:52:14;;;;;;;3.80;1.10;;;;;;;9.11;100.00;98435.91;217109;1295;140172;-93
2023/12/25 01:57:14;;;;;;;8.20;1.60;;;;;;;9.07;100.00;98449.59;217637;1293;138653;-93
2023/12/25 02:02:18;;;;;;;3.90;1.20;;;;;;;9.06;100.00;98468.20;217076;1293;139187;-94
2023/12/25 02:07:20;;;;;;;5.20;1.10;;;;;;;9.07;100.00;98471.56;217498;1293;138635;-94
2023/12/25 02:12:21;;;;;;;8.50;1.10;;;;;;;9.05;100.00;98468.19;217140;1293;139812;-90
2023/12/25 02:17:21;;;;;;;4.30;1.70;;;;;;;9.05;100.00;98473.92;217520;1293;139460;-91
2023/12/25 02:22:22;;;;;;;3.20;1.10;;;;;;;9.03;100.00;98482.27;216957;1293;140506;-92
2023/12/25 02:27:23;;;;;;;5.10;0.70;;;;;;;9.01;100.00;98484.89;217656;1293;138544;-91
2023/12/25 02:32:23;;;;;;;3.80;1.10;;;;;;;9.00;100.00;98487.96;216916;1293;139996;-90
2023/12/25 02:37:24;;;;;;;1.50;0.90;;;;;;;8.98;100.00;98490.17;217505;1295;138887;-91
2023/12/25 02:42:25;;;;;;;3.80;0.90;;;;;;;8.99;100.00;98506.08;217133;1293;139346;-92
2023/12/25 02:47:26;;;;;;;3.80;0.80;;;;;;;8.99;100.00;98513.38;217720;1293;138567;-94
2023/12/25 02:52:27;;;;;;;2.90;1.00;;;;;;;8.99;100.00;98518.46;217167;1293;140009;-93
2023/12/25 02:57:28;;;;;;;5.70;0.90;;;;;;;8.99;100.00;98518.55;217677;1293;139101;-92
2023/12/25 03:02:29;;;;;;;4.10;1.60;;;;;;;8.98;100.00;98525.45;217183;1293;139653;-91
2023/12/25 03:07:30;;;;;;;4.30;0.80;;;;;;;8.95;100.00;98536.45;217624;1293;138359;-89
2023/12/25 03:12:30;;;;;;;2.10;0.60;;;;;;;8.94;100.00;98549.80;216985;1294;139841;-92
2023/12/25 03:17:31;;;;;;;1.00;0.70;;;;;;;8.92;100.00;98563.08;217679;1293;139068;-91
2023/12/25 03:22:31;;;;;;;2.50;0.90;;;;;;;8.89;100.00;98567.11;216952;1293;140878;-91
2023/12/25 03:27:32;;;;;;;4.20;1.00;;;;;;;8.86;100.00;98566.21;217675;1293;138677;-93
2023/12/25 03:32:34;;;;;;;2.60;0.70;;;;;;;8.84;100.00;98562.15;217000;1293;139685;-91
2023/12/25 03:37:34;;;;;;;2.90;0.80;;;;;;;8.82;100.00;98563.52;217563;1293;138169;-93
2023/12/25 03:42:35;;;;;;;3.40;0.80;;;;;;;8.79;100.00;98569.18;217120;1293;140097;-95
2023/12/25 03:47:35;;;;;;;6.20;1.10;;;;;;;8.76;100.00;98584.50;217635;1293;138702;-91
2023/12/25 03:52:36;;;;;;;5.50;0.90;;;;;;;8.74;100.00;98591.80;217062;1293;140269;-92
2023/12/25 03:57:37;;;;;;;7.60;0.70;;;;;;;8.70;100.00;98598.11;217388;1293;139114;-92
2023/12/25 04:02:38;;;;;;;5.30;1.50;;;;;;;8.72;100.00;98601.55;217166;1293;139669;-91
2023/12/25 04:07:38;;;;;;;3.20;0.90;;;;;;;8.76;100.00;98590.06;217746;1293;96060;-92
2023/12/25 04:12:39;;;;;;;3.50;0.80;;;;;;;8.80;100.00;98585.71;216857;1296;139800;-93
2023/12/25 04:17:40;;;;;;;5.20;1.20;;;;;;;8.81;100.00;98576.60;217617;1293;139404;-95
2023/12/25 04:22:40;;;;;;;4.30;1.00;;;;;;;8.84;100.00;98577.11;216943;1293;139844;-91
2023/12/25 04:27:40;;;;;;;7.10;1.10;;;;;;;8.89;100.00;98575.95;217662;1293;138766;-90
2023/12/25 04:32:41;;;;;;;5.70;1.10;;;;;;;8.93;100.00;98584.22;217068;1293;140000;-91
2023/12/25 04:37:41;;;;;;;6.70;1.10;;;;;;;8.95;100.00;98578.71;217587;1293;96153;-91
2023/12/25 04:42:42;;;;;;;6.50;1.20;;;;;;;8.95;100.00;98570.40;216976;1293;139995;-90
2023/12/25 04:47:42;;;;;;;3.50;1.00;;;;;;;8.95;100.00;98563.59;217583;1293;140247;-90
2023/12/25 04:52:42;;;;;;;5.00;1.00;;;;;;;8.94;100.00;98573.70;216812;1293;139787;-90
2023/12/25 04:57:43;;;;;;;6.50;1.40;;;;;;;8.96;100.00;98578.00;217574;1293;139535;-92
2023/12/25 05:02:44;;;;;;;7.50;1.20;;;;;;;8.98;100.00;98570.30;216894;1294;139571;-91
2023/12/25 05:07:44;;;;;;;3.40;0.90;;;;;;;9.01;100.00;98562.25;217569;1293;96538;-90
2023/12/25 05:12:44;;;;;;;6.30;1.60;;;;;;;9.04;100.00;98566.60;217010;1293;139917;-92
2023/12/25 05:17:45;;;;;;;4.20;1.40;;;;;;;9.07;100.00;98563.27;217498;1293;138584;-90
2023/12/25 05:22:45;;;;;;;5.50;1.40;;;;;;;9.10;100.00;98561.83;216800;1298;140135;-89
2023/12/25 05:27:46;;;;;;;5.70;1.60;;;;;;;9.11;100.00;98564.48;217480;1293;138617;-91
2023/12/25 05:32:46;;;;;;;8.20;2.30;;;;;;;9.12;100.00;98571.45;216921;1293;139394;-91
2023/12/25 05:37:47;;;;;;;9.90;1.70;;;;;;;9.14;100.00;98573.22;217674;1293;96606;-90
2023/12/25 05:42:47;;;;;;;7.90;1.70;;;;;;;9.15;100.00;98569.75;216965;1295;139525;-91
2023/12/25 05:47:48;;;;;;;6.00;1.60;;;;;;;9.16;100.00;98573.50;217630;1293;138551;-90
2023/12/25 05:52:48;;;;;;;5.50;1.30;;;;;;;9.16;100.00;98583.15;217002;1293;139854;-90
2023/12/25 05:57:49;;;;;;;5.40;1.20;;;;;;;9.16;100.00;98589.58;217611;1293;138707;-88
2023/12/25 06:02:49;;;;;;;3.40;1.70;;;;;;;9.16;100.00;98586.12;216891;1293;140801;-91
2023/12/25 06:07:50;;;;;;;5.40;1.70;;;;;;;9.17;100.00;98581.49;217692;1293;95953;-89
2023/12/25 06:12:50;;;;;;;4.80;1.70;;;;;;;9.17;100.00;98573.09;217145;1293;139375;-92
2023/12/25 06:17:51;;;;;;;4.00;1.30;;;;;;;9.19;100.00;98558.11;217633;1293;139741;-89
2023/12/25 06:22:52;;;;;;;6.80;1.60;;;;;;;9.20;100.00;98567.50;217039;1293;139960;-91
2023/12/25 06:27:52;;;;;;;5.80;1.50;;;;;;;9.21;100.00;98560.27;217562;1293;139655;-90
2023/12/25 06:32:53;;;;;;;7.50;1.80;;;;;;;9.21;100.00;98558.08;216920;1297;139818;-91
2023/12/25 06:37:53;;;;;;;7.00;1.70;;;;;;;9.20;100.00;98567.73;217599;1293;96265;-90
2023/12/25 06:42:54;;;;;;;6.50;1.70;;;;;;;9.18;100.00;98569.32;216971;1293;139476;-90
2023/12/25 06:47:54;;;;;;;5.40;1.50;;;;;;;9.15;100.00;98573.98;217521;1297;138778;-88
2023/12/25 06:52:55;;;;;;;8.40;1.70;;;;;;;9.12;100.00;98586.65;216972;1298;140183;-89
2023/12/25 06:57:55;;;;;;;5.50;1.30;;;;;;;9.09;100.00;98593.90;217617;1293;138542;-92
2023/12/25 07:02:56;;;;;;;4.80;1.30;;;;;;;9.07;100.00;98600.20;217054;1293;139724;-90
2023/12/25 07:07:56;;;;;;;6.00;1.40;;;;;;;9.05;100.00;98596.85;217732;1293;96186;-91
2023/12/25 07:12:56;;;;;;;9.20;1.40;;;;;;;9.07;100.00;98590.09;217076;1295;140034;-91
2023/12/25 07:17:57;;;;;;;7.20;1.70;;;;;;;9.06;100.00;98598.55;217426;1293;139885;-93
2023/12/25 07:22:57;;;;;;;3.40;1.10;;;;;;;9.06;100.00;98603.50;216834;1294;140105;-90
2023/12/25 07:27:58;;;;;;;5.70;1.70;;;;;;;9.07;100.00;98610.94;217658;1293;140435;-93
2023/12/25 07:32:58;;;;;;;9.00;1.60;;;;;;;9.10;100.00;98621.95;217096;1293;141987;-91
2023/12/25 07:38:00;;;;;;;12.50;1.80;;;;;;;9.11;100.00;98613.94;217761;1297;96716;-89
2023/12/25 07:43:01;;;;;;;6.00;1.80;;;;;;;9.12;100.00;98625.15;217127;1294;139679;-89
2023/12/25 07:48:01;;;;;;;6.50;1.60;;;;;;;9.12;100.00;98630.25;217590;1297;138519;-92
2023/12/25 07:53:02;;;;;;;7.10;1.90;;;;;;;9.14;100.00;98625.52;217036;1294;139720;-90
2023/12/25 07:58:03;;;;;;;4.00;1.50;;;;;;;9.15;100.00;98622.98;217632;1294;138599;-90
2023/12/25 08:03:04;;;;;;;5.60;1.40;;;;;;;9.18;100.00;98635.35;217167;1295;140498;-89
2023/12/25 08:08:08;;;;;;;6.00;1.90;;;;;;;9.22;100.00;98629.19;217565;1295;96070;-89
2023/12/25 08:13:08;;;;;;;10.80;2.00;;;;;;;9.26;100.00;98627.71;216912;1294;139105;-89
2023/12/25 08:18:09;;;;;;;5.10;1.40;;;;;;;9.30;100.00;98630.96;217603;1294;138674;-91
2023/12/25 08:23:09;;;;;;;5.70;1.40;;;;;;;9.33;100.00;98632.34;217031;1295;140331;-89
2023/12/25 08:28:10;;;;;;;6.20;1.70;;;;;;;9.39;100.00;98637.83;217590;1293;138516;-89
2023/12/25 08:33:10;;;;;;;5.50;1.70;;;;;;;9.47;100.00;98658.82;217090;1293;140379;-90
2023/12/25 08:38:11;;;;;;;3.10;1.10;;;;;;;9.54;100.00;98661.95;217551;1293;96853;-89
2023/12/25 08:43:12;;;;;;;3.40;1.00;;;;;;;9.57;100.00;98641.73;217085;1293;140138;-91
2023/12/25 08:48:12;;;;;;;5.60;1.30;;;;;;;9.59;100.00;98651.91;217660;1293;138313;-90
2023/12/25 08:53:13;;;;;;;5.70;1.30;;;;;;;9.62;100.00;98651.63;216554;1296;139324;-89
2023/12/25 08:58:13;;;;;;;5.00;1.30;;;;;;;9.64;100.00;98653.50;217198;1296;138795;-89
2023/12/25 09:03:14;;;;;;;3.80;1.20;;;;;;;9.63;100.00;98665.98;216718;1295;141601;-91
2023/12/25 09:08:15;;;;;;;6.10;1.70;;;;;;;9.63;100.00;98674.46;217355;1295;96021;-91
2023/12/25 09:13:16;;;;;;;9.50;1.30;;;;;;;9.62;100.00;98675.11;216666;1295;139517;-90
2023/12/25 09:18:17;;;;;;;7.10;1.80;;;;;;;9.59;100.00;98686.44;217234;1296;138473;-89
2023/12/25 09:23:18;;;;;;;5.10;1.70;;;;;;;9.52;100.00;98708.41;216646;1295;139625;-92
2023/12/25 09:28:18;;;;;;;3.80;1.20;;;;;;;9.50;100.00;98711.81;217094;1296;139280;-90
2023/12/25 09:33:19;;;;;;;6.10;1.20;;;;;;;9.50;100.00;98727.52;216665;1295;139640;-89
2023/12/25 09:38:20;;;;;;;6.10;1.20;;;;;;;9.50;100.00;98725.63;217225;1295;96603;-89
2023/12/25 09:43:20;;;;;;;6.20;1.30;;;;;;;9.50;100.00;98730.58;216555;1295;139417;-89
2023/12/25 09:48:21;;;;;;;4.90;1.60;;;;;;;9.48;100.00;98734.20;216981;1295;362217;-90
2023/12/25 09:53:22;;;;;;;7.40;1.70;;;;;;;9.50;100.00;98732.77;217166;1293;139597;-90
2023/12/25 09:58:22;;;;;;;7.40;1.60;;;;;;;9.54;100.00;98741.27;217534;1293;138927;-90
2023/12/25 10:03:26;;;;;;;7.20;1.40;;;;;;;9.59;100.00;98748.11;217058;1294;139321;-88
2023/12/25 10:08:27;;;;;;;10.20;1.80;;;;;;;9.64;100.00;98757.70;217693;1293;96782;-90
2023/12/25 10:13:28;;;;;;;27.40;9.30;;;;;;;9.67;100.00;98759.23;216862;1293;139676;-92
2023/12/25 10:18:32;;;;;;;6.60;2.00;;;;;;;9.69;100.00;98762.90;217310;1293;140783;-91
2023/12/25 10:23:36;;;;;;;7.20;1.50;;;;;;;9.73;100.00;98774.23;217064;1293;140296;-91
2023/12/25 10:28:36;;;;;;;7.60;1.60;;;;;;;9.76;100.00;98782.81;217319;1293;139002;-90
2023/12/25 10:33:37;;;;;;;10.20;2.10;;;;;;;9.81;100.00;98785.42;217024;1293;140581;-89
2023/12/25 10:38:42;;;;;;;13.50;2.70;;;;;;;9.82;100.00;98787.38;217566;1295;96171;-93
2023/12/25 10:43:48;;;;;;;9.40;1.50;;;;;;;9.83;100.00;98784.69;216708;1295;140937;-89
2023/12/25 10:48:59;;;;;;;4.70;1.20;;;;;;;9.88;100.00;98795.48;217490;1293;138568;-89
2023/12/25 10:54:04;;;;;;;10.10;3.00;;;;;;;9.88;100.00;98796.89;216944;1293;139712;-89
2023/12/25 10:59:27;;;;;;;9.50;1.90;;;;;;;9.89;100.00;98802.84;217553;1293;139027;-90
2023/12/25 11:04:27;;;;;;;10.10;1.70;;;;;;;9.93;100.00;98801.77;216838;1293;140089;-88
2023/12/25 11:09:28;;;;;;;7.90;1.50;;;;;;;9.90;100.00;98803.46;217255;1293;139108;-88
2023/12/25 11:14:30;;;;;;;9.70;1.80;;;;;;;9.84;100.00;98806.20;217073;1296;139649;-90
2023/12/25 11:19:30;;;;;;;13.80;4.60;;;;;;;9.81;100.00;98806.30;217438;1293;139821;-89
2023/12/25 11:24:33;;;;;;;8.50;2.60;;;;;;;9.79;100.00;98811.84;216713;1293;140245;-90
2023/12/25 11:29:36;;;;;;;8.50;1.90;;;;;;;9.79;100.00;98811.59;217391;1293;139054;-88
2023/12/25 11:34:40;;;;;;;7.20;1.20;;;;;;;9.81;100.00;98830.10;216931;1293;139733;-90
2023/12/25 11:39:58;;;;;;;11.10;2.50;;;;;;;9.82;100.00;98837.39;217441;1293;138653;-90
2023/12/25 11:45:09;;;;;;;22.80;8.60;;;;;;;9.88;100.00;98833.01;217107;1293;243019;-90
2023/12/25 11:50:10;;;;;;;8.70;2.30;;;;;;;9.90;100.00;98838.39;216845;1294;140392;-90
2023/12/25 11:55:14;;;;;;;8.00;1.80;;;;;;;9.95;100.00;98840.84;217409;1293;139035;-90
2023/12/25 12:00:17;;;;;;;5.30;1.60;;;;;;;10.01;100.00;98849.32;216808;1293;140187;-90
2023/12/25 12:05:21;;;;;;;6.00;2.00;;;;;;;10.05;99.71;98857.63;217544;1293;139033;-90
2023/12/25 12:10:22;;;;;;;7.10;1.10;;;;;;;10.06;100.00;98877.73;216689;1294;140086;-90
2023/12/25 12:15:24;;;;;;;10.60;1.80;;;;;;;10.08;99.94;98873.94;217435;1293;138995;-91
2023/12/25 12:20:25;;;;;;;7.50;1.30;;;;;;;10.05;99.59;98881.58;216562;1296;140531;-89
2023/12/25 12:25:28;;;;;;;5.90;1.50;;;;;;;9.96;98.51;98880.25;217349;1293;139293;-89
2023/12/25 12:30:31;;;;;;;6.10;1.50;;;;;;;9.85;97.84;98895.91;216800;1293;139821;-86
2023/12/25 12:35:33;;;;;;;6.20;1.50;;;;;;;9.76;99.02;98891.30;217489;1293;139948;-89
2023/12/25 12:40:34;;;;;;;6.50;1.80;;;;;;;9.68;98.95;98906.60;216759;1293;140381;-88
2023/12/25 12:45:34;;;;;;;6.80;1.40;;;;;;;9.67;99.04;98918.38;217527;1293;139800;-89
2023/12/25 12:50:35;;;;;;;10.50;1.90;;;;;;;9.65;97.91;98931.50;216899;1293;139932;-87
2023/12/25 12:55:36;;;;;;;4.60;1.50;;;;;;;9.64;96.75;98940.06;217596;1293;138349;-88
2023/12/25 13:00:36;;;;;;;15.60;2.20;;;;;;;9.61;96.49;98953.90;217085;1293;139205;-89
2023/12/25 13:05:37;;;;;;;8.90;1.70;;;;;;;9.60;96.65;98956.13;217628;1293;138820;-89
2023/12/25 13:10:37;;;;;;;8.10;1.70;;;;;;;9.55;97.67;98966.99;217069;1293;139229;-87
2023/12/25 13:15:37;;;;;;;11.10;2.50;;;;;;;9.47;98.21;98970.81;217664;1293;138603;-87
2023/12/25 13:20:38;;;;;;;7.40;1.60;;;;;;;9.39;96.97;98984.21;217271;1293;139754;-89
2023/12/25 13:25:39;;;;;;;8.80;1.80;;;;;;;9.34;97.32;98990.61;217544;1293;138248;-90
2023/12/25 13:30:39;;;;;;;12.20;2.00;;;;;;;9.28;95.80;98994.34;216902;1293;140306;-87
2023/12/25 13:35:40;;;;;;;13.50;1.50;;;;;;;9.24;95.94;99002.29;217565;1293;138560;-87
2023/12/25 13:40:41;;;;;;;8.40;2.10;;;;;;;9.17;96.29;99014.24;216950;1293;139562;-87
2023/12/25 13:45:42;;;;;;;10.70;2.20;;;;;;;9.13;95.63;99012.55;217656;1293;139150;-89
2023/12/25 13:50:42;;;;;;;8.80;1.90;;;;;;;9.12;96.37;99018.20;217267;1293;139580;-86
2023/12/25 13:55:43;;;;;;;15.00;2.30;;;;;;;9.07;97.07;99018.47;217641;1293;137991;-87
2023/12/25 14:00:43;;;;;;;10.40;1.80;;;;;;;9.01;96.38;99032.45;217060;1293;139342;-90
2023/12/25 14:05:44;;;;;;;10.60;2.30;;;;;;;8.97;96.80;99039.53;217453;1293;138741;-90
2023/12/25 14:10:45;;;;;;;13.00;2.70;;;;;;;8.91;95.69;99052.56;217063;1293;139409;-89
2023/12/25 14:15:46;;;;;;;11.40;2.40;;;;;;;8.88;95.81;99058.85;217487;1293;141146;-89
2023/12/25 14:20:46;;;;;;;14.60;3.50;;;;;;;8.86;96.93;99064.58;217110;1293;139865;-91
2023/12/25 14:25:47;;;;;;;11.30;3.40;;;;;;;8.79;96.76;99070.56;217780;1293;95748;-90
2023/12/25 14:30:47;;;;;;;11.50;2.30;;;;;;;8.74;97.61;99075.75;217000;1293;139633;-89
2023/12/25 14:35:48;;;;;;;13.30;2.70;;;;;;;8.65;98.07;99085.10;217622;1293;138786;-90
2023/12/25 14:40:48;;;;;;;12.80;3.00;;;;;;;8.59;97.92;99092.88;217129;1293;139602;-87
2023/12/25 14:45:49;;;;;;;11.10;2.10;;;;;;;8.51;97.99;99096.27;217573;1293;139256;-90
2023/12/25 14:50:50;;;;;;;16.20;3.30;;;;;;;8.44;98.02;99099.41;217079;1293;139922;-87
2023/12/25 14:55:50;;;;;;;10.40;2.90;;;;;;;8.37;98.69;99111.02;217715;1293;95961;-90
2023/12/25 15:00:51;;;;;;;10.50;2.70;;;;;;;8.30;98.87;99101.55;217116;1293;140240;-88
2023/12/25 15:05:51;;;;;;;14.20;2.70;;;;;;;8.23;98.78;99112.43;217686;1293;139705;-89
2023/12/25 15:10:51;;;;;;;10.70;2.20;;;;;;;8.17;99.34;99119.22;217110;1293;140400;-89
2023/12/25 15:15:53;;;;;;;10.20;2.00;;;;;;;8.10;99.69;99121.41;217625;1293;139132;-89
2023/12/25 15:20:53;;;;;;;22.40;3.20;;;;;;;8.04;99.01;99122.75;217083;1293;139373;-90
2023/12/25 15:25:53;;;;;;;20.80;3.80;;;;;;;8.02;99.29;99139.89;217646;1293;106671;-89
2023/12/25 15:30:54;;;;;;;10.60;2.70;;;;;;;7.96;99.43;99145.52;217059;1293;140253;-89
2023/12/25 15:35:54;;;;;;;14.30;3.00;;;;;;;7.91;99.55;99157.02;217607;1293;138994;-88
2023/12/25 15:40:55;;;;;;;8.90;2.50;;;;;;;7.86;99.60;99170.55;216944;1293;139827;-90
2023/12/25 15:45:56;;;;;;;11.70;2.20;;;;;;;7.80;99.70;99180.33;217589;1293;139737;-88
2023/12/25 15:51:00;;;;;;;18.80;4.00;;;;;;;7.73;100.00;99186.40;216975;1293;140085;-88
2023/12/25 15:56:01;;;;;;;14.60;3.10;;;;;;;7.65;100.00;99201.58;217578;1293;107780;-87
2023/12/25 16:01:04;;;;;;;15.30;3.20;;;;;;;7.62;100.00;99211.58;217053;1293;140761;-91
2023/12/25 16:06:04;;;;;;;17.50;3.20;;;;;;;7.59;100.00;99234.70;217631;1293;139407;-88
2023/12/25 16:11:06;;;;;;;12.00;3.00;;;;;;;7.53;100.00;99240.65;217100;1293;139778;-89
2023/12/25 16:16:08;;;;;;;16.80;2.90;;;;;;;7.50;100.00;99248.13;217429;1293;138786;-88
2023/12/25 16:21:09;;;;;;;24.80;7.40;;;;;;;7.47;100.00;99246.95;217057;1293;139928;-89
2023/12/25 16:26:10;;;;;;;16.60;3.10;;;;;;;7.42;100.00;99238.71;217565;1293;96085;-88
2023/12/25 16:31:10;;;;;;;18.90;3.30;;;;;;;7.39;100.00;99246.36;217084;1293;140148;-88
2023/12/25 16:36:11;;;;;;;12.00;3.00;;;;;;;7.36;100.00;99251.18;217588;1296;138636;-88
2023/12/25 16:41:12;;;;;;;13.40;3.40;;;;;;;7.30;100.00;99266.33;217093;1293;139565;-89
2023/12/25 16:46:12;;;;;;;12.40;2.50;;;;;;;7.27;100.00;99278.98;217667;1293;139518;-89
2023/12/25 16:51:13;;;;;;;16.20;3.20;;;;;;;7.23;100.00;99286.92;217191;1293;140131;-89
2023/12/25 16:56:13;;;;;;;12.70;3.20;;;;;;;7.18;100.00;99292.77;217704;1293;95942;-90
2023/12/25 17:01:14;;;;;;;14.00;3.80;;;;;;;7.15;100.00;99302.28;217044;1293;140292;-89
2023/12/25 17:06:19;;;;;;;18.20;4.40;;;;;;;7.09;100.00;99325.38;217416;1293;138661;-89
2023/12/25 17:11:20;;;;;;;13.00;3.50;;;;;;;7.04;100.00;99314.94;216834;1293;140746;-90
2023/12/25 17:16:21;;;;;;;15.10;3.60;;;;;;;6.97;100.00;99321.23;217640;1293;138726;-90
2023/12/25 17:21:22;;;;;;;16.50;4.40;;;;;;;6.93;100.00;99319.86;217111;1293;140215;-88
2023/12/25 17:26:22;;;;;;;15.70;3.60;;;;;;;6.87;100.00;99320.12;217685;1293;96038;-88
2023/12/25 17:31:23;;;;;;;14.40;3.70;;;;;;;6.81;100.00;99320.95;217059;1293;139558;-88
2023/12/25 17:36:25;;;;;;;14.00;3.80;;;;;;;6.75;100.00;99320.02;217609;1293;139077;-88
2023/12/25 17:41:26;;;;;;;17.70;4.70;;;;;;;6.72;100.00;99333.91;216847;1293;139990;-89
2023/12/25 17:46:26;;;;;;;13.00;3.20;;;;;;;6.69;100.00;99344.27;217470;1293;139240;-89
2023/12/25 17:51:27;;;;;;;18.30;4.80;;;;;;;6.67;100.00;99348.70;217088;1293;139762;-87
2023/12/25 17:56:27;;;;;;;25.90;5.80;;;;;;;6.64;100.00;99350.31;217740;1296;95876;-88
2023/12/25 18:01:28;;;;;;;16.40;4.40;;;;;;;6.60;100.00;99360.35;216884;1293;139528;-88
2023/12/25 18:06:28;;;;;;;13.30;3.90;;;;;;;6.59;100.00;99365.80;217441;1293;139193;-88
2023/12/25 18:11:29;;;;;;;13.90;3.30;;;;;;;6.55;100.00;99371.02;217052;1293;140344;-88
2023/12/25 18:16:29;;;;;;;10.80;3.00;;;;;;;6.52;100.00;99380.27;217520;1293;139114;-88
2023/12/25 18:21:30;;;;;;;15.50;3.60;;;;;;;6.49;100.00;99393.05;217107;1293;140592;-87
2023/12/25 18:26:30;;;;;;;15.60;4.20;;;;;;;6.45;100.00;99398.85;217525;1293;105968;-87
2023/12/25 18:31:31;;;;;;;18.50;4.00;;;;;;;6.39;100.00;99399.42;217086;1294;140055;-86
2023/12/25 18:36:32;;;;;;;12.10;3.30;;;;;;;6.33;100.00;99402.86;217630;1293;139577;-88
2023/12/25 18:41:32;;;;;;;20.80;4.10;;;;;;;6.27;100.00;99412.23;217089;1293;139770;-88
2023/12/25 18:46:33;;;;;;;13.60;4.00;;;;;;;6.18;100.00;99418.92;217611;1293;139032;-88
2023/12/25 18:51:33;;;;;;;15.60;4.10;;;;;;;6.13;100.00;99424.16;217086;1293;139882;-88
2023/12/25 18:56:34;;;;;;;18.60;4.90;;;;;;;6.11;100.00;99420.40;217722;1293;95976;-88
2023/12/25 19:01:35;;;;;;;14.60;4.10;;;;;;;6.14;100.00;99423.70;217037;1293;139485;-88
2023/12/25 19:06:35;;;;;;;11.70;4.40;;;;;;;6.17;100.00;99426.79;217592;1293;138850;-88
2023/12/25 19:11:36;;;;;;;15.10;4.90;;;;;;;6.16;100.00;99419.27;217113;1293;139956;-87
2023/12/25 19:16:38;;;;;;;15.50;5.60;;;;;;;6.13;100.00;99417.21;217554;1293;139103;-89
2023/12/25 19:21:39;;;;;;;15.40;4.60;;;;;;;6.07;100.00;99426.35;217064;1293;140129;-88
2023/12/25 19:26:39;;;;;;;16.70;4.80;;;;;;;6.03;100.00;99435.52;217511;1293;107983;-87
2023/12/25 19:31:40;;;;;;;19.10;5.80;;;;;;;5.94;100.00;99437.02;217087;1293;139530;-88
2023/12/25 19:36:42;;;;;;;17.50;4.90;;;;;;;5.86;100.00;99443.38;217449;1293;139837;-88
2023/12/25 19:41:44;;;;;;;18.00;5.20;;;;;;;5.80;100.00;99450.39;216995;1293;139700;-88
2023/12/25 19:46:46;;;;;;;21.40;6.70;;;;;;;5.74;100.00;99452.70;217584;1293;140140;-88
2023/12/25 19:51:46;;;;;;;17.00;5.70;;;;;;;5.72;100.00;99460.94;216730;1295;140317;-87
2023/12/25 19:56:48;;;;;;;11.80;5.30;;;;;;;5.67;100.00;99461.02;217234;1295;140268;-88
2023/12/25 20:01:49;;;;;;;15.20;4.90;;;;;;;5.56;100.00;99456.25;216818;1296;139811;-88
2023/12/25 20:06:49;;;;;;;12.30;4.60;;;;;;;5.47;100.00;99458.14;217029;1295;139568;-88
2023/12/25 20:11:50;;;;;;;14.80;5.00;;;;;;;5.33;100.00;99469.22;216731;1295;140401;-88
2023/12/25 20:16:50;;;;;;;14.70;5.90;;;;;;;5.23;100.00;99478.48;217210;1295;139976;-88
2023/12/25 20:21:51;;;;;;;15.50;6.50;;;;;;;5.16;100.00;99473.52;216810;1295;139569;-87
2023/12/25 20:26:52;;;;;;;13.90;5.40;;;;;;;5.07;100.00;99480.55;217237;1295;139189;-88
2023/12/25 20:31:55;;;;;;;18.60;8.30;;;;;;;4.98;100.00;99496.11;216751;1296;140439;-88
2023/12/25 20:36:56;;;;;;;21.70;7.80;;;;;;;4.85;100.00;99483.48;217186;1295;138840;-88
2023/12/25 20:41:57;;;;;;;20.20;7.90;;;;;;;4.76;100.00;99483.17;216671;1295;140485;-88
2023/12/25 20:46:57;;;;;;;15.00;6.40;;;;;;;4.71;100.00;99474.11;217260;1295;139025;-89
2023/12/25 20:51:58;;;;;;;15.70;6.90;;;;;;;4.70;100.00;99459.45;217024;1293;140248;-88
2023/12/25 20:57:02;;;;;;;17.80;6.50;;;;;;;4.69;100.00;99466.98;217641;1293;139034;-88
2023/12/25 21:02:05;;;;;;;15.10;5.40;;;;;;;4.70;100.00;99478.92;217111;1293;140352;-88
2023/12/25 21:07:07;;;;;;;15.40;5.90;;;;;;;4.69;100.00;99485.29;217616;1293;140283;-88
2023/12/25 21:12:09;;;;;;;15.50;5.50;;;;;;;4.71;100.00;99492.58;217045;1293;140849;-88
2023/12/25 21:17:10;;;;;;;19.20;5.70;;;;;;;4.76;100.00;99490.33;217607;1293;139004;-88
2023/12/25 21:22:11;;;;;;;18.10;5.10;;;;;;;4.81;100.00;99495.19;217083;1293;140293;-90
2023/12/25 21:27:12;;;;;;;13.60;4.70;;;;;;;4.93;100.00;99492.27;217662;1293;139228;-88
2023/12/25 21:32:14;;;;;;;11.80;3.70;;;;;;;5.02;100.00;99487.45;217027;1293;139999;-88
2023/12/25 21:37:14;;;;;;;13.60;4.40;;;;;;;5.10;100.00;99489.31;217599;1295;139002;-88
2023/12/25 21:42:15;;;;;;;18.30;4.40;;;;;;;5.18;100.00;99491.48;217109;1293;140194;-88
2023/12/25 21:47:15;;;;;;;16.90;3.70;;;;;;;5.23;100.00;99493.52;217374;1293;317525;-88
2023/12/25 21:52:16;;;;;;;11.60;4.00;;;;;;;5.29;100.00;99482.71;216726;1295;140233;-88
2023/12/25 21:57:17;;;;;;;9.80;4.00;;;;;;;5.32;100.00;99490.48;217231;1295;139356;-89
2023/12/25 22:02:18;;;;;;;17.90;3.90;;;;;;;5.33;100.00;99483.63;216821;1295;139986;-88
2023/12/25 22:07:20;;;;;;;10.80;3.40;;;;;;;5.34;100.00;99484.60;217246;1295;139054;-88
2023/12/25 22:12:20;;;;;;;13.00;4.00;;;;;;;5.29;100.00;99477.81;216709;1296;139606;-88
2023/12/25 22:17:21;;;;;;;15.80;4.20;;;;;;;5.25;100.00;99479.30;217161;1296;139164;-89
2023/12/25 22:22:21;;;;;;;16.20;4.40;;;;;;;5.19;100.00;99474.36;216687;1296;140604;-88
2023/12/25 22:27:22;;;;;;;12.00;4.60;;;;;;;5.15;100.00;99473.82;217250;1295;139360;-88
2023/12/25 22:32:22;;;;;;;12.80;4.10;;;;;;;5.11;100.00;99481.86;216656;1296;140700;-88
2023/12/25 22:37:23;;;;;;;11.50;3.20;;;;;;;5.01;100.00;99483.94;217275;1295;139685;-88
2023/12/25 22:42:24;;;;;;;13.20;4.70;;;;;;;4.83;100.00;99479.30;216723;1295;139629;-88
2023/12/25 22:47:24;;;;;;;21.90;7.80;;;;;;;4.71;100.00;99468.81;217283;1295;139296;-89
2023/12/25 22:52:25;;;;;;;14.60;4.90;;;;;;;4.67;100.00;99465.63;216617;1296;140394;-88
2023/12/25 22:57:26;;;;;;;56.40;16.10;;;;;;;4.53;100.00;99469.26;217270;1295;139786;-88
2023/12/25 23:02:27;;;;;;;111.70;30.00;;;;;;;4.44;100.00;99476.85;216823;1295;140706;-89
2023/12/25 23:07:28;;;;;;;128.60;32.40;;;;;;;4.42;100.00;99476.19;217113;1295;139723;-88
2023/12/25 23:12:29;;;;;;;121.30;30.70;;;;;;;4.33;100.00;99468.00;216652;1295;140392;-88
2023/12/25 23:17:30;;;;;;;130.50;33.40;;;;;;;4.24;100.00;99464.15;217209;1296;139815;-88
2023/12/25 23:22:30;;;;;;;111.40;29.00;;;;;;;4.15;100.00;99458.44;216669;1297;140579;-89
2023/12/25 23:27:31;;;;;;;81.20;24.00;;;;;;;4.06;100.00;99461.67;217207;1295;139604;-89
2023/12/25 23:32:31;;;;;;;64.00;19.10;;;;;;;3.96;100.00;99456.02;216771;1295;140233;-89
2023/12/25 23:37:31;;;;;;;48.30;14.20;;;;;;;3.90;100.00;99460.30;217193;1295;139426;-89
2023/12/25 23:42:32;;;;;;;59.90;18.50;;;;;;;3.87;100.00;99462.58;216656;1296;139796;-89
2023/12/25 23:47:33;;;;;;;47.90;17.00;;;;;;;3.84;100.00;99468.80;217162;1296;139435;-89
2023/12/25 23:52:33;;;;;;;47.90;14.20;;;;;;;3.84;100.00;99471.67;217102;1293;140337;-88
2023/12/25 23:57:34;;;;;;;55.70;17.10;;;;;;;3.85;100.00;99462.91;217626;1293;138934;-89
